createdAt,value
2022-11-29T00:01:06.598Z,95807.84
2022-11-29T00:03:34.609Z,95810.00
2022-11-29T00:06:08.178Z,95809.66
2022-11-29T00:08:36.071Z,95808.81
2022-11-29T00:11:07.241Z,95814.41
2022-11-29T00:13:33.712Z,95810.19
2022-11-29T00:16:12.400Z,95801.44
2022-11-29T00:18:38.757Z,95814.66
2022-11-29T00:21:08.706Z,95812.19
2022-11-29T00:23:36.227Z,95816.63
2022-11-29T00:26:07.138Z,95803.31
2022-11-29T00:28:34.876Z,95806.94
2022-11-29T00:31:12.413Z,95805.47
2022-11-29T00:33:38.768Z,95805.66
2022-11-29T00:36:05.326Z,95808.28
2022-11-29T00:38:31.979Z,95801.53
2022-11-29T00:40:58.329Z,95810.31
2022-11-29T00:43:24.643Z,95799.97
2022-11-29T00:45:51.471Z,95802.97
2022-11-29T00:48:17.850Z,95800.16
2022-11-29T00:50:44.222Z,95802.59
2022-11-29T00:53:11.046Z,95803.88
2022-11-29T00:55:37.367Z,95799.88
2022-11-29T00:58:03.831Z,95806.94
2022-11-29T01:00:30.514Z,95797.16
2022-11-29T01:02:56.822Z,95796.44
2022-11-29T01:05:23.250Z,95798.56
2022-11-29T01:07:50.164Z,95798.94
2022-11-29T01:10:16.941Z,95792.97
2022-11-29T01:12:43.267Z,95807.03
2022-11-29T01:15:10.909Z,95794.09
2022-11-29T01:17:38.787Z,95800.94
2022-11-29T01:20:07.642Z,95800.13
2022-11-29T01:22:35.405Z,95805.38
2022-11-29T01:25:01.822Z,95800.06
2022-11-29T01:27:29.362Z,95801.88
2022-11-29T01:29:56.306Z,95802.69
2022-11-29T01:32:22.678Z,95797.72
2022-11-29T01:34:49.051Z,95800.50
2022-11-29T01:37:15.889Z,95800.97
2022-11-29T01:39:42.545Z,95801.63
2022-11-29T01:42:12.720Z,95795.72
2022-11-29T01:44:39.537Z,95805.06
2022-11-29T01:47:05.885Z,95804.41
2022-11-29T01:49:37.428Z,95800.97
2022-11-29T01:52:11.793Z,95799.81
2022-11-29T01:54:47.127Z,95800.16
2022-11-29T01:57:14.115Z,95795.53
2022-11-29T01:59:48.053Z,95797.00
2022-11-29T02:02:22.598Z,95797.28
2022-11-29T02:04:49.817Z,95795.63
2022-11-29T02:07:16.978Z,95794.72
2022-11-29T02:09:43.712Z,95804.16
2022-11-29T02:12:19.149Z,95788.75
2022-11-29T02:14:58.077Z,95795.78
2022-11-29T02:17:33.432Z,95796.91
2022-11-29T02:20:28.534Z,95796.19
2022-11-29T02:23:19.592Z,95799.97
2022-11-29T02:26:02.622Z,95801.53
2022-11-29T02:28:49.282Z,95795.00
2022-11-29T02:31:54.549Z,95797.97
2022-11-29T02:34:57.907Z,95797.00
2022-11-29T02:37:58.996Z,95790.66
2022-11-29T02:40:51.466Z,95803.88
2022-11-29T02:43:51.408Z,95797.06
2022-11-29T02:46:59.497Z,95796.44
2022-11-29T02:49:44.142Z,95799.69
2022-11-29T02:52:25.693Z,95796.44
2022-11-29T02:55:04.436Z,95799.88
2022-11-29T02:57:43.633Z,95799.53
2022-11-29T03:00:15.220Z,95799.97
2022-11-29T03:03:02.238Z,95803.22
2022-11-29T03:05:37.502Z,95806.34
2022-11-29T03:08:31.210Z,95803.06
2022-11-29T03:11:07.325Z,95798.91
2022-11-29T03:13:53.099Z,95807.59
2022-11-29T03:16:44.902Z,95805.06
2022-11-29T03:19:30.046Z,95808.94
2022-11-29T03:22:04.334Z,95810.19
2022-11-29T03:24:51.074Z,95812.75
2022-11-29T03:27:28.246Z,95814.91
2022-11-29T03:30:02.684Z,95822.34
2022-11-29T03:32:39.061Z,95823.59
2022-11-29T03:35:30.108Z,95812.75
2022-11-29T03:38:24.046Z,95823.31
2022-11-29T03:40:57.638Z,95812.19
2022-11-29T03:43:35.001Z,95819.72
2022-11-29T03:46:10.595Z,95814.81
2022-11-29T03:48:44.676Z,95815.63
2022-11-29T03:51:21.707Z,95819.63
2022-11-29T03:53:57.698Z,95825.53
2022-11-29T03:56:35.437Z,95823.88
2022-11-29T03:59:10.628Z,95819.28
2022-11-29T04:01:55.504Z,95822.53
2022-11-29T04:04:45.805Z,95819.28
2022-11-29T04:07:24.667Z,95816.28
2022-11-29T04:10:20.944Z,95823.00
2022-11-29T04:13:25.555Z,95815.28
2022-11-29T04:16:10.733Z,95827.09
2022-11-29T04:19:11.335Z,95819.00
2022-11-29T04:21:43.629Z,95828.69
2022-11-29T04:24:29.118Z,95827.25
2022-11-29T04:27:19.062Z,95829.63
2022-11-29T04:29:51.930Z,95830.16
2022-11-29T04:32:25.306Z,95827.09
2022-11-29T04:35:16.945Z,95830.34
2022-11-29T04:38:17.775Z,95834.44
2022-11-29T04:40:56.694Z,95834.78
2022-11-29T04:43:32.181Z,95842.66
2022-11-29T04:46:11.478Z,95838.84
2022-11-29T04:48:59.915Z,95841.13
2022-11-29T04:51:43.758Z,95842.13
2022-11-29T04:54:39.915Z,95844.66
2022-11-29T04:57:18.726Z,95847.22
2022-11-29T04:59:53.694Z,95841.03
2022-11-29T05:02:28.871Z,95842.94
2022-11-29T05:05:18.499Z,95843.38
2022-11-29T05:07:52.749Z,95852.28
2022-11-29T05:10:39.544Z,95845.03
2022-11-29T05:13:37.881Z,95845.38
2022-11-29T05:16:15.781Z,95845.72
2022-11-29T05:18:57.313Z,95850.53
2022-11-29T05:21:47.459Z,95854.28
2022-11-29T05:24:51.364Z,95857.53
2022-11-29T05:27:46.226Z,95854.00
2022-11-29T05:30:19.466Z,95862.59
2022-11-29T05:33:05.548Z,95854.91
2022-11-29T05:35:52.959Z,95852.97
2022-11-29T05:38:50.231Z,95860.31
2022-11-29T05:41:24.071Z,95861.31
2022-11-29T05:44:07.901Z,95863.66
2022-11-29T05:46:48.450Z,95865.03
2022-11-29T05:49:34.057Z,95859.69
2022-11-29T05:52:14.056Z,95870.72
2022-11-29T05:54:47.076Z,95866.66
2022-11-29T05:57:47.985Z,95874.63
2022-11-29T06:00:17.190Z,95868.38
2022-11-29T06:03:06.482Z,95882.50
2022-11-29T06:05:51.647Z,95872.91
2022-11-29T06:08:46.762Z,95882.34
2022-11-29T06:11:28.090Z,95879.72
2022-11-29T06:14:36.497Z,95881.09
2022-11-29T06:17:25.745Z,95878.22
2022-11-29T06:20:17.150Z,95884.47
2022-11-29T06:22:57.962Z,95879.84
2022-11-29T06:25:34.207Z,95888.34
2022-11-29T06:28:25.281Z,95897.66
2022-11-29T06:31:03.632Z,95897.03
2022-11-29T06:33:58.410Z,95897.59
2022-11-29T06:36:48.885Z,95904.31
2022-11-29T06:39:15.422Z,95900.50
2022-11-29T06:41:42.099Z,95904.13
2022-11-29T06:44:10.057Z,95908.69
2022-11-29T06:46:49.139Z,95908.91
2022-11-29T06:49:25.127Z,95906.41
2022-11-29T06:52:13.584Z,95906.13
2022-11-29T06:55:11.109Z,95913.09
2022-11-29T06:58:06.398Z,95905.13
2022-11-29T07:01:02.737Z,95909.19
2022-11-29T07:03:54.799Z,95924.88
2022-11-29T07:06:25.299Z,95920.91
2022-11-29T07:08:56.055Z,95925.81
2022-11-29T07:11:22.718Z,95924.59
2022-11-29T07:13:50.020Z,95934.59
2022-11-29T07:16:25.650Z,95928.25
2022-11-29T07:19:18.998Z,95936.75
2022-11-29T07:21:58.530Z,95936.06
2022-11-29T07:24:35.294Z,95934.50
2022-11-29T07:27:20.288Z,95934.75
2022-11-29T07:29:56.343Z,95937.59
2022-11-29T07:32:38.257Z,95936.41
2022-11-29T07:35:12.370Z,95937.75
2022-11-29T07:38:01.461Z,95934.59
2022-11-29T07:40:52.218Z,95934.50
2022-11-29T07:43:48.858Z,95931.59
2022-11-29T07:46:15.661Z,95929.50
2022-11-29T07:48:42.302Z,95929.72
2022-11-29T07:51:09.181Z,95931.50
2022-11-29T07:53:41.078Z,95940.22
2022-11-29T07:56:09.365Z,95937.94
2022-11-29T07:58:36.323Z,95944.84
2022-11-29T08:01:03.762Z,95944.03
2022-11-29T08:03:31.249Z,95953.91
2022-11-29T08:05:57.627Z,95943.28
2022-11-29T08:08:23.924Z,95945.53
2022-11-29T08:10:50.641Z,95943.09
2022-11-29T08:13:20.228Z,95948.00
2022-11-29T08:15:47.990Z,95951.28
2022-11-29T08:18:16.037Z,95950.25
2022-11-29T08:20:42.941Z,95962.34
2022-11-29T08:23:11.134Z,95951.34
2022-11-29T08:25:37.946Z,95958.59
2022-11-29T08:28:05.339Z,95958.06
2022-11-29T08:30:31.759Z,95953.09
2022-11-29T08:32:58.597Z,95955.94
2022-11-29T08:35:25.190Z,95960.97
2022-11-29T08:37:51.940Z,95950.03
2022-11-29T08:40:18.365Z,95960.78
2022-11-29T08:42:44.724Z,95963.63
2022-11-29T08:45:12.169Z,95966.38
2022-11-29T08:47:39.096Z,95967.09
2022-11-29T08:50:12.540Z,95960.44
2022-11-29T08:53:00.397Z,95969.03
2022-11-29T08:55:31.180Z,95961.41
2022-11-29T08:58:03.509Z,95964.59
2022-11-29T09:00:30.458Z,95960.63
2022-11-29T09:03:17.218Z,95968.03
2022-11-29T09:05:43.815Z,95966.66
2022-11-29T09:08:10.239Z,95975.94
2022-11-29T09:10:38.765Z,95975.78
2022-11-29T09:13:05.482Z,95976.94
2022-11-29T09:15:31.806Z,95969.72
2022-11-29T09:17:58.577Z,95984.84
2022-11-29T09:20:25.834Z,95976.56
2022-11-29T09:22:52.429Z,95991.47
2022-11-29T09:25:18.773Z,95982.50
2022-11-29T09:27:45.597Z,95991.84
2022-11-29T09:30:12.266Z,95990.25
2022-11-29T09:32:38.597Z,95996.25
2022-11-29T09:35:05.328Z,96001.03
2022-11-29T09:37:31.639Z,96006.94
2022-11-29T09:39:57.960Z,95997.69
2022-11-29T09:42:42.309Z,96006.28
2022-11-29T09:45:19.506Z,96005.03
2022-11-29T09:48:09.165Z,95997.63
2022-11-29T09:50:46.223Z,96003.88
2022-11-29T09:53:56.131Z,96001.38
2022-11-29T09:56:30.614Z,96004.53
2022-11-29T09:59:02.154Z,95994.00
2022-11-29T10:01:34.098Z,96000.63
2022-11-29T10:04:05.063Z,96008.69
2022-11-29T10:06:38.729Z,96003.47
2022-11-29T10:09:33.732Z,95995.47
2022-11-29T10:12:07.285Z,95989.81
2022-11-29T10:14:46.546Z,95991.50
2022-11-29T10:17:23.734Z,95998.19
2022-11-29T10:19:57.585Z,95988.53
2022-11-29T10:22:44.854Z,95993.50
2022-11-29T10:25:21.945Z,95991.47
2022-11-29T10:27:48.309Z,95996.31
2022-11-29T10:30:16.144Z,95997.41
2022-11-29T10:32:45.780Z,95992.63
2022-11-29T10:35:17.610Z,95998.53
2022-11-29T10:38:01.404Z,95983.16
2022-11-29T10:40:35.998Z,95991.16
2022-11-29T10:43:02.974Z,95989.72
2022-11-29T10:45:39.194Z,95985.41
2022-11-29T10:48:15.709Z,95990.53
2022-11-29T10:50:52.010Z,95990.09
2022-11-29T10:53:26.829Z,95995.25
2022-11-29T10:55:53.892Z,95992.75
2022-11-29T10:58:28.487Z,95991.47
2022-11-29T11:01:02.697Z,95987.13
2022-11-29T11:03:55.322Z,95991.94
2022-11-29T11:06:28.111Z,95991.06
2022-11-29T11:08:57.488Z,95995.69
2022-11-29T11:11:33.894Z,95999.00
2022-11-29T11:14:02.927Z,95992.88
2022-11-29T11:16:34.185Z,95995.41
2022-11-29T11:19:33.837Z,95995.41
2022-11-29T11:22:02.201Z,95997.03
2022-11-29T11:24:36.974Z,96003.53
2022-11-29T11:27:03.794Z,95996.00
2022-11-29T11:29:44.035Z,95999.50
2022-11-29T11:32:18.383Z,95995.84
2022-11-29T11:34:56.809Z,95994.66
2022-11-29T11:37:26.203Z,95990.19
2022-11-29T11:39:57.430Z,96001.56
2022-11-29T11:42:37.996Z,96001.63
2022-11-29T11:45:05.220Z,95995.06
2022-11-29T11:47:35.526Z,95997.31
2022-11-29T11:50:04.728Z,96004.22
2022-11-29T11:52:39.862Z,95999.13
2022-11-29T11:55:21.960Z,95999.00
2022-11-29T11:58:04.656Z,95997.19
2022-11-29T12:01:16.461Z,96010.81
2022-11-29T12:03:39.721Z,96001.28
2022-11-29T12:06:06.056Z,96000.63
2022-11-29T12:08:34.025Z,96005.25
2022-11-29T12:11:07.373Z,96010.72
2022-11-29T12:13:39.723Z,96004.38
2022-11-29T12:16:15.515Z,96006.56
2022-11-29T12:18:51.361Z,96014.06
2022-11-29T12:21:26.737Z,96014.94
2022-11-29T12:23:52.990Z,96014.78
2022-11-29T12:26:58.406Z,96022.69
2022-11-29T12:29:27.622Z,96031.69
2022-11-29T12:32:15.618Z,96028.38
2022-11-29T12:34:45.709Z,96025.28
2022-11-29T12:37:48.337Z,96026.22
2022-11-29T12:40:28.810Z,96018.66
2022-11-29T12:43:46.507Z,96023.84
2022-11-29T12:46:16.736Z,96021.66
2022-11-29T12:48:57.305Z,96022.16
2022-11-29T12:51:48.837Z,96026.53
2022-11-29T12:54:39.841Z,96026.78
2022-11-29T12:57:38.894Z,96026.16
2022-11-29T13:00:14.081Z,96023.03
2022-11-29T13:03:02.082Z,96025.75
2022-11-29T13:05:43.947Z,96024.13
2022-11-29T13:08:22.284Z,96015.19
2022-11-29T13:11:19.755Z,96025.06
2022-11-29T13:13:51.974Z,96025.25
2022-11-29T13:16:37.454Z,96032.75
2022-11-29T13:19:33.631Z,96033.28
2022-11-29T13:22:02.905Z,96031.00
2022-11-29T13:24:42.554Z,96038.53
2022-11-29T13:27:25.326Z,96034.72
2022-11-29T13:29:52.870Z,96043.88
2022-11-29T13:32:31.932Z,96032.00
2022-11-29T13:35:21.101Z,96036.13
2022-11-29T13:38:26.936Z,96041.38
2022-11-29T13:41:11.352Z,96044.91
2022-11-29T13:44:19.567Z,96046.31
2022-11-29T13:47:05.444Z,96035.44
2022-11-29T13:49:53.558Z,96047.63
2022-11-29T13:52:43.072Z,96048.16
2022-11-29T13:55:31.456Z,96044.72
2022-11-29T13:58:19.034Z,96055.19
2022-11-29T14:00:45.513Z,96052.47
2022-11-29T14:03:24.013Z,96065.41
2022-11-29T14:06:03.459Z,96053.72
2022-11-29T14:09:16.649Z,96057.09
2022-11-29T14:11:36.501Z,96053.81
2022-11-29T14:14:05.497Z,96057.69
2022-11-29T14:16:32.086Z,96063.19
2022-11-29T14:19:11.524Z,96058.25
2022-11-29T14:22:17.297Z,96062.81
2022-11-29T14:24:56.526Z,96070.31
2022-11-29T14:27:23.261Z,96061.94
2022-11-29T14:29:49.515Z,96060.44
2022-11-29T14:32:25.446Z,96060.44
2022-11-29T14:35:11.240Z,96064.47
2022-11-29T14:38:00.084Z,96068.66
2022-11-29T14:40:41.015Z,96074.78
2022-11-29T14:43:32.205Z,96073.06
2022-11-29T14:46:27.752Z,96073.56
2022-11-29T14:48:57.328Z,96074.34
2022-11-29T14:51:28.463Z,96077.66
2022-11-29T14:54:19.439Z,96080.03
2022-11-29T14:56:47.236Z,96082.44
2022-11-29T14:59:45.807Z,96079.78
2022-11-29T15:02:32.316Z,96086.56
2022-11-29T15:05:20.592Z,96080.97
2022-11-29T15:08:13.722Z,96080.66
2022-11-29T15:10:44.777Z,96090.50
2022-11-29T15:13:15.683Z,96083.88
2022-11-29T15:16:13.959Z,96084.91
2022-11-29T15:19:12.282Z,96078.78
2022-11-29T15:21:54.725Z,96092.97
2022-11-29T15:24:28.048Z,96088.16
2022-11-29T15:27:00.465Z,96085.59
2022-11-29T15:29:28.705Z,96092.81
2022-11-29T15:31:57.836Z,96094.69
2022-11-29T15:34:40.634Z,96096.59
2022-11-29T15:37:12.566Z,96102.69
2022-11-29T15:39:40.026Z,96107.25
2022-11-29T15:42:14.700Z,96115.59
2022-11-29T15:44:48.607Z,96121.63
2022-11-29T15:47:27.026Z,96120.19
2022-11-29T15:49:54.248Z,96118.75
2022-11-29T15:52:36.043Z,96122.88
2022-11-29T15:55:10.061Z,96128.97
2022-11-29T15:57:46.393Z,96127.59
2022-11-29T16:00:20.096Z,96135.00
2022-11-29T16:02:56.726Z,96133.50
2022-11-29T16:05:26.593Z,96130.16
2022-11-29T16:07:57.269Z,96133.78
2022-11-29T16:10:43.833Z,96120.81
2022-11-29T16:13:25.367Z,96131.84
2022-11-29T16:16:21.176Z,96136.19
2022-11-29T16:18:49.870Z,96143.91
2022-11-29T16:21:30.098Z,96138.94
2022-11-29T16:23:57.384Z,96138.56
2022-11-29T16:26:32.958Z,96148.44
2022-11-29T16:29:00.397Z,96152.72
2022-11-29T16:31:35.949Z,96149.38
2022-11-29T16:34:34.736Z,96143.47
2022-11-29T16:37:06.516Z,96137.91
2022-11-29T16:39:38.834Z,96146.75
2022-11-29T16:42:28.760Z,96146.28
2022-11-29T16:45:02.236Z,96152.53
2022-11-29T16:47:30.634Z,96164.00
2022-11-29T16:50:03.331Z,96152.56
2022-11-29T16:52:34.155Z,96154.03
2022-11-29T16:55:00.797Z,96155.13
2022-11-29T16:57:29.021Z,96155.03
2022-11-29T16:59:55.338Z,96164.19
2022-11-29T17:02:21.751Z,96153.78
2022-11-29T17:04:48.830Z,96155.50
2022-11-29T17:07:22.597Z,96157.38
2022-11-29T17:09:50.642Z,96162.94
2022-11-29T17:12:17.273Z,96165.47
2022-11-29T17:14:43.876Z,96168.13
2022-11-29T17:17:18.492Z,96162.03
2022-11-29T17:19:45.282Z,96173.91
2022-11-29T17:22:12.351Z,96172.09
2022-11-29T17:24:43.412Z,96181.91
2022-11-29T17:27:12.950Z,96177.00
2022-11-29T17:29:39.653Z,96180.56
2022-11-29T17:32:06.485Z,96186.63
2022-11-29T17:34:33.590Z,96185.63
2022-11-29T17:36:59.909Z,96187.25
2022-11-29T17:39:26.627Z,96192.38
2022-11-29T17:41:52.961Z,96196.25
2022-11-29T17:44:19.297Z,96205.00
2022-11-29T17:46:46.066Z,96196.81
2022-11-29T17:49:12.454Z,96200.41
2022-11-29T17:51:51.670Z,96197.09
2022-11-29T17:54:18.917Z,96205.53
2022-11-29T17:56:45.637Z,96209.53
2022-11-29T17:59:12.043Z,96203.16
2022-11-29T18:01:38.457Z,96203.59
2022-11-29T18:04:07.268Z,96203.97
2022-11-29T18:06:38.177Z,96204.50
2022-11-29T18:09:07.865Z,96205.59
2022-11-29T18:11:47.107Z,96201.06
2022-11-29T18:14:18.310Z,96203.06
2022-11-29T18:16:45.315Z,96196.56
2022-11-29T18:19:14.651Z,96200.56
2022-11-29T18:21:41.641Z,96196.28
2022-11-29T18:24:08.413Z,96199.09
2022-11-29T18:26:36.421Z,96203.19
2022-11-29T18:29:04.210Z,96204.47
2022-11-29T18:31:33.433Z,96198.84
2022-11-29T18:34:02.283Z,96203.75
2022-11-29T18:36:34.494Z,96212.31
2022-11-29T18:39:03.993Z,96216.50
2022-11-29T18:41:31.097Z,96219.22
2022-11-29T18:44:06.312Z,96223.59
2022-11-29T18:46:35.438Z,96223.97
2022-11-29T18:49:03.833Z,96220.31
2022-11-29T18:51:31.794Z,96228.16
2022-11-29T18:53:58.747Z,96226.06
2022-11-29T18:56:28.058Z,96226.22
2022-11-29T18:58:58.413Z,96225.97
2022-11-29T19:01:27.895Z,96223.47
2022-11-29T19:03:57.195Z,96220.94
2022-11-29T19:06:39.279Z,96233.47
2022-11-29T19:09:10.859Z,96224.88
2022-11-29T19:11:37.267Z,96243.13
2022-11-29T19:14:07.857Z,96231.94
2022-11-29T19:16:34.870Z,96231.94
2022-11-29T19:19:01.908Z,96235.00
2022-11-29T19:21:35.104Z,96241.75
2022-11-29T19:24:04.117Z,96239.38
2022-11-29T19:26:31.860Z,96241.47
2022-11-29T19:29:00.796Z,96242.34
2022-11-29T19:31:28.296Z,96242.16
2022-11-29T19:33:55.341Z,96233.00
2022-11-29T19:36:27.301Z,96243.19
2022-11-29T19:38:54.558Z,96244.56
2022-11-29T19:41:27.201Z,96241.13
2022-11-29T19:43:56.484Z,96243.91
2022-11-29T19:46:25.860Z,96250.44
2022-11-29T19:48:54.149Z,96252.16
2022-11-29T19:51:21.861Z,96246.44
2022-11-29T19:53:51.138Z,96253.06
2022-11-29T19:56:17.697Z,96248.50
2022-11-29T19:58:45.030Z,96255.66
2022-11-29T20:01:14.619Z,96255.50
2022-11-29T20:03:41.721Z,96250.22
2022-11-29T20:06:10.117Z,96258.31
2022-11-29T20:08:37.117Z,96254.03
2022-11-29T20:11:14.417Z,96264.56
2022-11-29T20:13:42.748Z,96256.00
2022-11-29T20:16:15.748Z,96261.00
2022-11-29T20:18:50.212Z,96262.91
2022-11-29T20:21:20.695Z,96257.34
2022-11-29T20:23:47.203Z,96262.16
2022-11-29T20:26:18.836Z,96260.59
2022-11-29T20:28:47.299Z,96264.16
2022-11-29T20:31:16.535Z,96266.16
2022-11-29T20:33:44.654Z,96268.81
2022-11-29T20:36:36.623Z,96267.44
2022-11-29T20:39:05.833Z,96273.22
2022-11-29T20:41:58.596Z,96274.91
2022-11-29T20:44:38.306Z,96275.84
2022-11-29T20:47:16.446Z,96267.44
2022-11-29T20:49:43.011Z,96272.69
2022-11-29T20:52:31.806Z,96284.03
2022-11-29T20:54:58.116Z,96280.50
2022-11-29T20:57:24.433Z,96281.00
2022-11-29T20:59:51.142Z,96282.88
2022-11-29T21:02:17.534Z,96293.75
2022-11-29T21:04:44.129Z,96285.31
2022-11-29T21:07:11.064Z,96287.06
2022-11-29T21:09:37.932Z,96289.06
2022-11-29T21:12:04.642Z,96283.78
2022-11-29T21:14:31.194Z,96287.94
2022-11-29T21:16:58.219Z,96289.06
2022-11-29T21:19:25.829Z,96297.72
2022-11-29T21:22:14.447Z,96294.16
2022-11-29T21:24:40.988Z,96293.66
2022-11-29T21:27:12.603Z,96297.34
2022-11-29T21:29:39.602Z,96301.97
2022-11-29T21:32:06.649Z,96296.16
2022-11-29T21:34:33.944Z,96293.63
2022-11-29T21:37:00.359Z,96298.91
2022-11-29T21:39:33.442Z,96304.03
2022-11-29T21:41:59.842Z,96304.41
2022-11-29T21:44:26.765Z,96296.25
2022-11-29T21:46:53.135Z,96300.63
2022-11-29T21:49:22.727Z,96302.28
2022-11-29T21:51:49.912Z,96304.47
2022-11-29T21:54:16.802Z,96306.41
2022-11-29T21:56:48.209Z,96304.38
2022-11-29T21:59:16.692Z,96301.25
2022-11-29T22:01:47.207Z,96307.41
2022-11-29T22:04:13.997Z,96307.63
2022-11-29T22:06:42.296Z,96303.19
2022-11-29T22:09:09.163Z,96307.44
2022-11-29T22:11:42.357Z,96299.28
2022-11-29T22:14:14.373Z,96299.28
2022-11-29T22:16:45.121Z,96307.97
2022-11-29T22:19:12.690Z,96305.97
2022-11-29T22:21:44.691Z,96298.31
2022-11-29T22:24:12.685Z,96298.69
2022-11-29T22:26:39.711Z,96292.75
2022-11-29T22:29:06.541Z,96298.66
2022-11-29T22:31:35.151Z,96299.59
2022-11-29T22:34:01.941Z,96296.41
2022-11-29T22:36:28.813Z,96303.94
2022-11-29T22:38:55.222Z,96304.38
2022-11-29T22:41:22.029Z,96310.97
2022-11-29T22:43:48.365Z,96305.66
2022-11-29T22:46:20.713Z,96306.94
2022-11-29T22:48:51.253Z,96301.56
2022-11-29T22:51:30.429Z,96295.34
2022-11-29T22:54:00.132Z,96300.28
2022-11-29T22:56:29.227Z,96303.06
2022-11-29T22:58:55.895Z,96298.66
2022-11-29T23:01:24.880Z,96295.47
2022-11-29T23:03:56.570Z,96291.22
2022-11-29T23:06:28.404Z,96287.59
2022-11-29T23:08:57.417Z,96284.19
2022-11-29T23:11:29.366Z,96279.38
2022-11-29T23:13:55.912Z,96294.69
2022-11-29T23:16:25.182Z,96304.09
2022-11-29T23:18:53.401Z,96303.13
2022-11-29T23:21:28.308Z,96302.44
2022-11-29T23:23:56.830Z,96295.47
2022-11-29T23:26:33.828Z,96285.53
2022-11-29T23:29:00.559Z,96295.38
2022-11-29T23:31:26.989Z,96285.31
2022-11-29T23:33:53.358Z,96286.63
2022-11-29T23:36:20.212Z,96286.63
2022-11-29T23:38:46.999Z,96285.38
2022-11-29T23:41:13.541Z,96297.44
2022-11-29T23:43:41.974Z,96294.97
2022-11-29T23:46:12.512Z,96295.00
2022-11-29T23:48:38.959Z,96293.78
2022-11-29T23:51:05.837Z,96293.00
2022-11-29T23:53:32.444Z,96301.19
2022-11-29T23:56:00.525Z,96301.06
2022-11-29T23:58:28.207Z,96296.78
